createdAt,value
2018-08-06T00:00:31.561Z,98217.02
2018-08-06T00:01:03.187Z,98216.18
2018-08-06T00:01:34.782Z,98214.03
2018-08-06T00:02:06.382Z,98216.59
2018-08-06T00:02:37.957Z,98220.87
2018-08-06T00:03:09.586Z,98219.23
2018-08-06T00:03:41.192Z,98217.11
2018-08-06T00:04:13.352Z,98220.59
2018-08-06T00:04:44.930Z,98218.10
2018-08-06T00:05:16.532Z,98222.44
2018-08-06T00:05:48.110Z,98225.96
2018-08-06T00:06:19.701Z,98220.05
2018-08-06T00:06:51.304Z,98217.07
2018-08-06T00:07:22.909Z,98220.05
2018-08-06T00:07:54.511Z,98218.71
2018-08-06T00:08:26.145Z,98223.33
2018-08-06T00:08:57.722Z,98216.02
2018-08-06T00:09:29.317Z,98223.27
2018-08-06T00:10:00.917Z,98222.42
2018-08-06T00:10:32.499Z,98221.65
2018-08-06T00:11:04.084Z,98225.61
2018-08-06T00:11:35.675Z,98225.24
2018-08-06T00:12:07.259Z,98224.77
2018-08-06T00:12:38.857Z,98228.66
2018-08-06T00:13:10.483Z,98228.23
2018-08-06T00:13:42.067Z,98224.83
2018-08-06T00:14:13.660Z,98231.17
2018-08-06T00:14:45.247Z,98227.88
2018-08-06T00:15:16.833Z,98227.95
2018-08-06T00:15:48.459Z,98230.61
2018-08-06T00:16:20.047Z,98234.41
2018-08-06T00:16:51.631Z,98228.51
2018-08-06T00:17:23.214Z,98229.79
2018-08-06T00:17:54.798Z,98225.93
2018-08-06T00:18:26.392Z,98228.80
2018-08-06T00:18:57.979Z,98228.74
2018-08-06T00:19:29.567Z,98227.88
2018-08-06T00:20:01.142Z,98228.74
2018-08-06T00:20:32.775Z,98230.42
2018-08-06T00:21:04.373Z,98229.15
2018-08-06T00:21:35.973Z,98222.33
2018-08-06T00:22:07.578Z,98227.39
2018-08-06T00:22:39.167Z,98230.00
2018-08-06T00:23:10.761Z,98230.13
2018-08-06T00:23:42.351Z,98227.20
2018-08-06T00:24:13.935Z,98230.19
2018-08-06T00:24:45.533Z,98225.94
2018-08-06T00:25:17.114Z,98231.92
2018-08-06T00:25:48.729Z,98227.70
2018-08-06T00:26:20.322Z,98230.27
2018-08-06T00:26:51.916Z,98225.63
2018-08-06T00:27:23.528Z,98229.41
2018-08-06T00:27:55.115Z,98229.83
2018-08-06T00:28:26.701Z,98224.25
2018-08-06T00:28:58.291Z,98224.22
2018-08-06T00:29:29.930Z,98231.84
2018-08-06T00:30:01.510Z,98226.66
2018-08-06T00:30:33.141Z,98230.50
2018-08-06T00:31:04.746Z,98225.74
2018-08-06T00:31:36.348Z,98225.25
2018-08-06T00:32:07.953Z,98225.30
2018-08-06T00:32:39.557Z,98226.19
2018-08-06T00:33:11.197Z,98230.00
2018-08-06T00:33:42.783Z,98224.41
2018-08-06T00:34:14.377Z,98223.61
2018-08-06T00:34:45.953Z,98226.97
2018-08-06T00:35:17.540Z,98223.67
2018-08-06T00:35:49.127Z,98225.08
2018-08-06T00:36:20.759Z,98223.86
2018-08-06T00:36:52.343Z,98217.96
2018-08-06T00:37:23.928Z,98218.40
2018-08-06T00:37:55.519Z,98217.66
2018-08-06T00:38:27.103Z,98217.23
2018-08-06T00:38:58.688Z,98221.09
2018-08-06T00:39:30.284Z,98220.29
2018-08-06T00:40:01.877Z,98211.81
2018-08-06T00:40:33.472Z,98216.46
2018-08-06T00:41:05.049Z,98220.72
2018-08-06T00:41:36.679Z,98216.03
2018-08-06T00:42:08.272Z,98216.46
2018-08-06T00:42:39.859Z,98218.20
2018-08-06T00:43:11.444Z,98218.95
2018-08-06T00:43:43.029Z,98213.84
2018-08-06T00:44:14.675Z,98216.75
2018-08-06T00:44:46.263Z,98212.47
2018-08-06T00:45:17.903Z,98215.52
2018-08-06T00:45:49.469Z,98211.33
2018-08-06T00:46:21.055Z,98212.20
2018-08-06T00:46:52.635Z,98217.73
2018-08-06T00:47:24.238Z,98215.17
2018-08-06T00:47:55.841Z,98217.68
2018-08-06T00:48:27.427Z,98213.46
2018-08-06T00:48:59.055Z,98210.96
2018-08-06T00:49:30.653Z,98211.76
2018-08-06T00:50:02.225Z,98213.84
2018-08-06T00:50:33.825Z,98213.77
2018-08-06T00:51:05.406Z,98213.35
2018-08-06T00:51:36.991Z,98213.81
2018-08-06T00:52:08.583Z,98211.95
2018-08-06T00:52:40.195Z,98216.19
2018-08-06T00:53:11.824Z,98212.83
2018-08-06T00:53:43.410Z,98212.36
2018-08-06T00:54:15.040Z,98211.44
2018-08-06T00:54:46.637Z,98208.88
2018-08-06T00:55:18.237Z,98209.37
2018-08-06T00:55:49.827Z,98217.05
2018-08-06T00:56:21.425Z,98206.02
2018-08-06T00:56:53.042Z,98217.53
2018-08-06T00:57:24.631Z,98215.05
2018-08-06T00:57:56.265Z,98215.61
2018-08-06T00:58:27.839Z,98208.96
2018-08-06T00:58:59.427Z,98214.58
2018-08-06T00:59:31.025Z,98212.58
2018-08-06T01:00:02.611Z,98212.55
2018-08-06T01:00:34.204Z,98211.80
2018-08-06T01:01:05.801Z,98201.70
2018-08-06T01:01:37.405Z,98211.50
2018-08-06T01:02:08.982Z,98209.78
2018-08-06T01:02:40.581Z,98213.56
2018-08-06T01:03:12.214Z,98207.54
2018-08-06T01:03:43.847Z,98207.90
2018-08-06T01:04:15.436Z,98210.44
2018-08-06T01:04:47.038Z,98210.88
2018-08-06T01:05:18.622Z,98208.86
2018-08-06T01:05:50.197Z,98207.70
2018-08-06T01:06:21.787Z,98213.74
2018-08-06T01:06:53.362Z,98204.30
2018-08-06T01:07:24.947Z,98211.63
2018-08-06T01:07:56.574Z,98210.38
2018-08-06T01:08:28.161Z,98214.22
2018-08-06T01:08:59.744Z,98210.76
2018-08-06T01:09:31.341Z,98205.10
2018-08-06T01:10:02.917Z,98202.54
2018-08-06T01:10:34.523Z,98200.36
2018-08-06T01:11:06.157Z,98202.11
2018-08-06T01:11:37.747Z,98203.78
2018-08-06T01:12:09.322Z,98208.03
2018-08-06T01:12:40.894Z,98202.91
2018-08-06T01:13:12.493Z,98195.73
2018-08-06T01:13:44.119Z,98203.70
2018-08-06T01:14:15.708Z,98201.98
2018-08-06T01:14:47.305Z,98201.91
2018-08-06T01:15:18.900Z,98201.42
2018-08-06T01:15:50.509Z,98206.04
2018-08-06T01:16:22.138Z,98201.70
2018-08-06T01:16:53.710Z,98204.64
2018-08-06T01:17:25.307Z,98207.69
2018-08-06T01:17:56.910Z,98204.77
2018-08-06T01:18:28.514Z,98211.17
2018-08-06T01:19:00.144Z,98200.15
2018-08-06T01:19:31.741Z,98206.18
2018-08-06T01:20:03.309Z,98205.31
2018-08-06T01:20:34.929Z,98200.63
2018-08-06T01:21:06.515Z,98203.85
2018-08-06T01:21:38.100Z,98199.16
2018-08-06T01:22:09.697Z,98202.01
2018-08-06T01:22:41.293Z,98206.64
2018-08-06T01:23:12.883Z,98199.34
2018-08-06T01:23:44.517Z,98203.67
2018-08-06T01:24:16.117Z,98204.38
2018-08-06T01:24:47.717Z,98206.81
2018-08-06T01:25:19.348Z,98202.91
2018-08-06T01:25:50.934Z,98204.11
2018-08-06T01:26:22.533Z,98200.20
2018-08-06T01:26:54.124Z,98198.72
2018-08-06T01:27:25.731Z,98205.35
2018-08-06T01:27:57.360Z,98200.38
2018-08-06T01:28:28.961Z,98195.86
2018-08-06T01:29:00.547Z,98200.19
2018-08-06T01:29:32.145Z,98198.09
2018-08-06T01:30:03.741Z,98186.70
2018-08-06T01:30:35.331Z,98194.94
2018-08-06T01:31:06.951Z,98199.86
2018-08-06T01:31:38.547Z,98197.86
2018-08-06T01:32:10.137Z,98192.45
2018-08-06T01:32:41.733Z,98195.83
2018-08-06T01:33:13.375Z,98199.57
2018-08-06T01:33:44.967Z,98202.17
2018-08-06T01:34:16.555Z,98196.59
2018-08-06T01:34:48.125Z,98199.98
2018-08-06T01:35:19.705Z,98198.64
2018-08-06T01:35:51.306Z,98200.28
2018-08-06T01:36:22.882Z,98191.23
2018-08-06T01:36:54.467Z,98191.23
2018-08-06T01:37:26.061Z,98192.25
2018-08-06T01:37:57.686Z,98194.08
2018-08-06T01:38:29.280Z,98194.50
2018-08-06T01:39:00.889Z,98193.65
2018-08-06T01:39:32.479Z,98194.98
2018-08-06T01:40:04.081Z,98197.66
2018-08-06T01:40:35.672Z,98193.03
2018-08-06T01:41:07.259Z,98197.66
2018-08-06T01:41:38.844Z,98192.55
2018-08-06T01:42:10.436Z,98194.67
2018-08-06T01:42:42.027Z,98191.70
2018-08-06T01:43:13.645Z,98193.47
2018-08-06T01:43:45.249Z,98192.25
2018-08-06T01:44:16.879Z,98194.75
2018-08-06T01:44:48.467Z,98187.51
2018-08-06T01:45:20.056Z,98190.06
2018-08-06T01:45:51.720Z,98188.72
2018-08-06T01:46:23.317Z,98196.27
2018-08-06T01:46:54.915Z,98190.25
2018-08-06T01:47:26.521Z,98193.23
2018-08-06T01:47:58.136Z,98187.75
2018-08-06T01:48:29.722Z,98194.45
2018-08-06T01:49:01.323Z,98189.66
2018-08-06T01:49:32.960Z,98188.36
2018-08-06T01:50:04.559Z,98188.73
2018-08-06T01:50:36.148Z,98183.36
2018-08-06T01:51:07.741Z,98188.48
2018-08-06T01:51:39.341Z,98188.30
2018-08-06T01:52:10.927Z,98190.97
2018-08-06T01:52:42.515Z,98192.41
2018-08-06T01:53:14.099Z,98185.61
2018-08-06T01:53:45.673Z,98187.47
2018-08-06T01:54:17.269Z,98187.52
2018-08-06T01:54:48.869Z,98190.20
2018-08-06T01:55:20.459Z,98190.73
2018-08-06T01:55:52.053Z,98194.14
2018-08-06T01:56:23.649Z,98192.91
2018-08-06T01:56:55.275Z,98189.83
2018-08-06T01:57:26.856Z,98188.13
2018-08-06T01:57:58.452Z,98193.23
2018-08-06T01:58:30.041Z,98187.27
2018-08-06T01:59:01.631Z,98186.05
2018-08-06T01:59:33.212Z,98185.63
2018-08-06T02:00:04.810Z,98189.50
2018-08-06T02:00:36.395Z,98194.66
2018-08-06T02:01:07.989Z,98190.92
2018-08-06T02:01:39.575Z,98192.19
2018-08-06T02:02:11.149Z,98185.42
2018-08-06T02:02:42.735Z,98183.31
2018-08-06T02:03:14.323Z,98193.15
2018-08-06T02:03:45.916Z,98187.66
2018-08-06T02:04:17.503Z,98190.22
2018-08-06T02:04:49.091Z,98189.36
2018-08-06T02:05:20.679Z,98185.55
2018-08-06T02:05:52.268Z,98191.45
2018-08-06T02:06:23.864Z,98190.59
2018-08-06T02:06:55.450Z,98186.50
2018-08-06T02:07:27.113Z,98189.94
2018-08-06T02:07:58.698Z,98193.77
2018-08-06T02:08:30.283Z,98196.33
2018-08-06T02:09:01.882Z,98194.69
2018-08-06T02:09:33.457Z,98196.01
2018-08-06T02:10:05.043Z,98196.42
2018-08-06T02:10:36.641Z,98194.25
2018-08-06T02:11:08.230Z,98189.20
2018-08-06T02:11:39.865Z,98196.44
2018-08-06T02:12:11.448Z,98200.27
2018-08-06T02:12:43.060Z,98196.80
2018-08-06T02:13:14.641Z,98188.68
2018-08-06T02:13:46.218Z,98197.98
2018-08-06T02:14:17.817Z,98200.44
2018-08-06T02:14:49.406Z,98190.97
2018-08-06T02:15:21.015Z,98199.42
2018-08-06T02:15:52.616Z,98193.89
2018-08-06T02:16:24.247Z,98196.12
2018-08-06T02:16:55.839Z,98194.85
2018-08-06T02:17:27.437Z,98193.98
2018-08-06T02:17:59.022Z,98197.39
2018-08-06T02:18:30.606Z,98197.09
2018-08-06T02:19:02.190Z,98200.16
2018-08-06T02:19:33.775Z,98194.59
2018-08-06T02:20:05.346Z,98197.78
2018-08-06T02:20:36.924Z,98198.62
2018-08-06T02:21:08.520Z,98193.94
2018-08-06T02:21:40.147Z,98199.96
2018-08-06T02:22:11.743Z,98202.56
2018-08-06T02:22:43.345Z,98201.01
2018-08-06T02:23:14.932Z,98199.78
2018-08-06T02:23:46.519Z,98198.84
2018-08-06T02:24:18.147Z,98197.46
2018-08-06T02:24:49.732Z,98204.27
2018-08-06T02:25:21.334Z,98199.96
2018-08-06T02:25:52.909Z,98200.70
2018-08-06T02:26:24.509Z,98205.33
2018-08-06T02:26:56.114Z,98202.36
2018-08-06T02:27:27.709Z,98199.80
2018-08-06T02:27:59.301Z,98199.34
2018-08-06T02:28:30.895Z,98200.15
2018-08-06T02:29:02.473Z,98203.08
2018-08-06T02:29:34.076Z,98195.04
2018-08-06T02:30:05.669Z,98198.02
2018-08-06T02:30:37.255Z,98195.05
2018-08-06T02:31:08.839Z,98192.06
2018-08-06T02:31:40.442Z,98201.01
2018-08-06T02:32:12.077Z,98200.53
2018-08-06T02:32:43.689Z,98201.36
2018-08-06T02:33:15.276Z,98196.80
2018-08-06T02:33:46.855Z,98196.45
2018-08-06T02:34:18.439Z,98205.88
2018-08-06T02:34:50.045Z,98200.85
2018-08-06T02:35:21.644Z,98203.94
2018-08-06T02:35:53.214Z,98201.82
2018-08-06T02:36:24.844Z,98204.04
2018-08-06T02:36:56.441Z,98200.64
2018-08-06T02:37:28.041Z,98199.84
2018-08-06T02:37:59.641Z,98202.02
2018-08-06T02:38:31.228Z,98204.19
2018-08-06T02:39:02.815Z,98199.94
2018-08-06T02:39:34.418Z,98198.09
2018-08-06T02:40:06.048Z,98201.01
2018-08-06T02:40:37.649Z,98205.21
2018-08-06T02:41:09.245Z,98200.00
2018-08-06T02:41:40.850Z,98204.22
2018-08-06T02:42:12.498Z,98196.02
2018-08-06T02:42:44.097Z,98201.91
2018-08-06T02:43:15.697Z,98203.56
2018-08-06T02:43:47.297Z,98200.91
2018-08-06T02:44:18.891Z,98194.87
2018-08-06T02:44:50.476Z,98194.39
2018-08-06T02:45:22.064Z,98194.81
2018-08-06T02:45:53.666Z,98197.38
2018-08-06T02:46:25.251Z,98192.74
2018-08-06T02:46:56.836Z,98188.59
2018-08-06T02:47:28.454Z,98185.66
2018-08-06T02:48:00.042Z,98198.02
2018-08-06T02:48:31.641Z,98191.64
2018-08-06T02:49:03.227Z,98194.63
2018-08-06T02:49:34.831Z,98188.70
2018-08-06T02:50:06.432Z,98197.20
2018-08-06T02:50:38.042Z,98113.52
2018-08-06T02:51:09.634Z,98191.91
2018-08-06T02:51:41.223Z,98195.91
2018-08-06T02:52:12.807Z,98190.47
2018-08-06T02:52:44.440Z,98192.70
2018-08-06T02:53:16.046Z,98188.50
2018-08-06T02:53:47.652Z,98186.75
2018-08-06T02:54:19.261Z,98185.80
2018-08-06T02:54:51.097Z,98189.72
2018-08-06T02:55:22.683Z,98187.70
2018-08-06T02:55:54.274Z,98183.88
2018-08-06T02:56:25.868Z,98186.52
2018-08-06T02:56:57.502Z,98194.13
2018-08-06T02:57:29.101Z,98187.70
2018-08-06T02:58:00.713Z,98188.02
2018-08-06T02:58:32.344Z,98191.38
2018-08-06T02:59:03.946Z,98191.34
2018-08-06T02:59:35.576Z,98191.70
2018-08-06T03:00:07.188Z,98191.60
2018-08-06T03:00:38.795Z,98191.17
2018-08-06T03:01:10.397Z,98184.78
2018-08-06T03:01:41.993Z,98184.73
2018-08-06T03:02:13.573Z,98188.94
2018-08-06T03:02:45.160Z,98182.97
2018-08-06T03:03:16.764Z,98191.22
2018-08-06T03:03:48.370Z,98192.59
2018-08-06T03:04:20.059Z,98196.53
2018-08-06T03:04:51.643Z,98199.19
2018-08-06T03:05:23.217Z,98193.23
2018-08-06T03:05:54.813Z,98197.97
2018-08-06T03:06:26.403Z,98196.64
2018-08-06T03:06:57.985Z,98196.12
2018-08-06T03:07:29.576Z,98195.74
2018-08-06T03:08:01.177Z,98191.48
2018-08-06T03:08:32.771Z,98191.06
2018-08-06T03:09:04.359Z,98188.97
2018-08-06T03:09:35.998Z,98202.92
2018-08-06T03:10:07.606Z,98205.95
2018-08-06T03:10:39.209Z,98197.53
2018-08-06T03:11:10.799Z,98193.28
2018-08-06T03:11:42.402Z,98197.91
2018-08-06T03:12:13.994Z,98194.08
2018-08-06T03:12:45.583Z,98194.78
2018-08-06T03:13:17.167Z,98199.05
2018-08-06T03:13:48.770Z,98200.27
2018-08-06T03:14:20.359Z,98200.21
2018-08-06T03:14:52.018Z,98203.14
2018-08-06T03:15:23.622Z,98201.91
2018-08-06T03:15:55.201Z,98198.52
2018-08-06T03:16:26.775Z,98199.84
2018-08-06T03:16:58.418Z,98199.94
2018-08-06T03:17:29.989Z,98192.76
2018-08-06T03:18:01.575Z,98197.86
2018-08-06T03:18:33.159Z,98197.96
2018-08-06T03:19:04.760Z,98200.99
2018-08-06T03:19:36.352Z,98188.74
2018-08-06T03:20:07.979Z,98195.89
2018-08-06T03:20:39.573Z,98197.21
2018-08-06T03:21:11.184Z,98198.54
2018-08-06T03:21:42.775Z,98190.07
2018-08-06T03:22:14.369Z,98193.38
2018-08-06T03:22:45.965Z,98198.44
2018-08-06T03:23:17.551Z,98193.80
2018-08-06T03:23:49.136Z,98196.45
2018-08-06T03:24:20.723Z,98186.67
2018-08-06T03:24:52.325Z,98189.73
2018-08-06T03:25:23.952Z,98192.34
2018-08-06T03:25:55.529Z,98189.89
2018-08-06T03:26:27.116Z,98192.48
2018-08-06T03:26:58.690Z,98189.94
2018-08-06T03:27:30.275Z,98193.38
2018-08-06T03:28:01.878Z,98190.45
2018-08-06T03:28:33.643Z,98191.20
2018-08-06T03:29:05.234Z,98190.35
2018-08-06T03:29:36.870Z,98193.76
2018-08-06T03:30:08.431Z,98197.59
2018-08-06T03:30:40.067Z,98189.94
2018-08-06T03:31:11.655Z,98192.87
2018-08-06T03:31:43.243Z,98191.11
2018-08-06T03:32:14.836Z,98169.56
2018-08-06T03:32:46.418Z,98190.65
2018-08-06T03:33:18.017Z,98189.84
2018-08-06T03:33:49.607Z,98191.53
2018-08-06T03:34:21.193Z,98181.72
2018-08-06T03:34:52.775Z,98189.42
2018-08-06T03:35:24.407Z,98188.56
2018-08-06T03:35:56.006Z,98186.02
2018-08-06T03:36:27.596Z,98182.60
2018-08-06T03:36:59.180Z,98184.73
2018-08-06T03:37:30.777Z,98185.58
2018-08-06T03:38:02.353Z,98187.29
2018-08-06T03:38:33.962Z,98183.03
2018-08-06T03:39:05.546Z,98184.36
2018-08-06T03:39:37.131Z,98186.53
2018-08-06T03:40:08.754Z,98187.77
2018-08-06T03:40:40.389Z,98186.91
2018-08-06T03:41:11.980Z,98196.65
2018-08-06T03:41:43.567Z,98186.48
2018-08-06T03:42:15.151Z,98189.93
2018-08-06T03:42:46.755Z,98185.27
2018-08-06T03:43:18.366Z,98186.52
2018-08-06T03:43:49.965Z,98188.19
2018-08-06T03:44:21.565Z,98193.63
2018-08-06T03:44:53.161Z,98188.47
2018-08-06T03:45:24.782Z,98185.02
2018-08-06T03:45:56.381Z,98187.14
2018-08-06T03:46:27.963Z,98189.22
2018-08-06T03:46:59.569Z,98184.55
2018-08-06T03:47:31.169Z,98190.12
2018-08-06T03:48:02.755Z,98189.64
2018-08-06T03:48:34.351Z,98191.77
2018-08-06T03:49:05.970Z,98186.67
2018-08-06T03:49:37.560Z,98187.48
2018-08-06T03:50:09.154Z,98188.88
2018-08-06T03:50:40.801Z,98192.67
2018-08-06T03:51:12.377Z,98195.83
2018-08-06T03:51:44.009Z,98194.48
2018-08-06T03:52:15.612Z,98190.33
2018-08-06T03:52:47.238Z,98188.16
2018-08-06T03:53:18.814Z,98189.33
2018-08-06T03:53:50.385Z,98193.59
2018-08-06T03:54:21.971Z,98193.68
2018-08-06T03:54:53.560Z,98198.84
2018-08-06T03:55:25.201Z,98187.10
2018-08-06T03:55:56.811Z,98188.92
2018-08-06T03:56:28.446Z,98191.66
2018-08-06T03:57:00.072Z,98192.77
2018-08-06T03:57:31.664Z,98193.92
2018-08-06T03:58:03.261Z,98196.43
2018-08-06T03:58:34.861Z,98195.63
2018-08-06T03:59:06.447Z,98193.45
2018-08-06T03:59:38.051Z,98187.03
2018-08-06T04:00:09.649Z,98195.07
2018-08-06T04:00:41.239Z,98194.70
2018-08-06T04:01:12.831Z,98191.33
2018-08-06T04:01:44.415Z,98200.68
2018-08-06T04:02:16.065Z,98194.77
2018-08-06T04:02:47.649Z,98196.42
2018-08-06T04:03:19.251Z,98196.34
2018-08-06T04:03:50.839Z,98198.09
2018-08-06T04:04:22.437Z,98196.69
2018-08-06T04:04:54.023Z,98197.53
2018-08-06T04:05:25.625Z,98196.64
2018-08-06T04:05:57.210Z,98193.99
2018-08-06T04:06:28.844Z,98190.97
2018-08-06T04:07:00.431Z,98190.11
2018-08-06T04:07:32.029Z,98193.52
2018-08-06T04:08:03.682Z,98187.66
2018-08-06T04:08:35.276Z,98186.78
2018-08-06T04:09:06.864Z,98194.05
2018-08-06T04:09:38.467Z,98195.41
2018-08-06T04:10:10.056Z,98189.50
2018-08-06T04:10:41.635Z,98194.98
2018-08-06T04:11:13.209Z,98201.17
2018-08-06T04:11:44.781Z,98196.36
2018-08-06T04:12:16.379Z,98202.69
2018-08-06T04:12:47.968Z,98195.88
2018-08-06T04:13:19.570Z,98193.72
2018-08-06T04:13:51.173Z,98194.66
2018-08-06T04:14:22.764Z,98191.30
2018-08-06T04:14:54.355Z,98197.73
2018-08-06T04:15:25.944Z,98194.79
2018-08-06T04:15:57.541Z,98191.03
2018-08-06T04:16:29.130Z,98196.30
2018-08-06T04:17:00.716Z,98198.52
2018-08-06T04:17:32.339Z,98192.19
2018-08-06T04:18:03.945Z,98197.20
2018-08-06T04:18:35.598Z,98198.80
2018-08-06T04:19:07.184Z,98197.88
2018-08-06T04:19:38.830Z,98195.70
2018-08-06T04:20:10.494Z,98201.59
2018-08-06T04:20:42.084Z,98198.15
2018-08-06T04:21:13.667Z,98198.88
2018-08-06T04:21:45.266Z,98200.42
2018-08-06T04:22:16.861Z,98191.88
2018-08-06T04:22:48.465Z,98197.73
2018-08-06T04:23:20.052Z,98201.08
2018-08-06T04:23:51.680Z,98198.05
2018-08-06T04:24:23.263Z,98203.53
2018-08-06T04:24:54.862Z,98203.55
2018-08-06T04:25:26.506Z,98195.17
2018-08-06T04:25:58.090Z,98200.38
2018-08-06T04:26:29.689Z,98197.40
2018-08-06T04:27:01.275Z,98194.47
2018-08-06T04:27:32.867Z,98197.36
2018-08-06T04:28:04.452Z,98204.16
2018-08-06T04:28:36.036Z,98201.17
2018-08-06T04:29:07.637Z,98198.62
2018-08-06T04:29:39.233Z,98201.14
2018-08-06T04:30:10.874Z,98197.83
2018-08-06T04:30:42.469Z,98205.01
2018-08-06T04:31:14.048Z,98199.43
2018-08-06T04:31:45.621Z,98198.20
2018-08-06T04:32:17.203Z,98199.11
2018-08-06T04:32:48.822Z,98199.99
2018-08-06T04:33:20.415Z,98202.13
2018-08-06T04:33:52.034Z,98205.11
2018-08-06T04:34:23.628Z,98200.00
2018-08-06T04:34:55.212Z,98199.58
2018-08-06T04:35:26.842Z,98202.21
2018-08-06T04:35:58.461Z,98194.95
2018-08-06T04:36:30.054Z,98206.84
2018-08-06T04:37:01.653Z,98200.42
2018-08-06T04:37:33.251Z,98197.88
2018-08-06T04:38:04.846Z,98202.21
2018-08-06T04:38:36.457Z,98210.73
2018-08-06T04:39:08.027Z,98208.55
2018-08-06T04:39:39.619Z,98205.15
2018-08-06T04:40:11.189Z,98203.82
2018-08-06T04:40:42.765Z,98199.56
2018-08-06T04:41:14.392Z,98204.69
2018-08-06T04:41:45.979Z,98202.27
2018-08-06T04:42:17.567Z,98201.98
2018-08-06T04:42:49.155Z,98199.09
2018-08-06T04:43:20.739Z,98198.72
2018-08-06T04:43:52.377Z,98196.26
2018-08-06T04:44:23.977Z,98200.47
2018-08-06T04:44:55.618Z,98196.22
2018-08-06T04:45:27.221Z,98194.84
2018-08-06T04:45:58.859Z,98199.04
2018-08-06T04:46:30.428Z,98194.23
2018-08-06T04:47:02.030Z,98199.71
2018-08-06T04:47:33.615Z,98199.28
2018-08-06T04:48:05.199Z,98199.76
2018-08-06T04:48:36.803Z,98193.80
2018-08-06T04:49:08.386Z,98193.75
2018-08-06T04:49:40.013Z,98200.00
2018-08-06T04:50:11.603Z,98197.45
2018-08-06T04:50:43.177Z,98197.81
2018-08-06T04:51:14.785Z,98197.73
2018-08-06T04:51:46.371Z,98201.47
2018-08-06T04:52:17.956Z,98205.70
2018-08-06T04:52:49.557Z,98203.96
2018-08-06T04:53:21.208Z,98203.92
2018-08-06T04:53:52.804Z,98203.54
2018-08-06T04:54:24.405Z,98203.95
2018-08-06T04:54:55.992Z,98202.31
2018-08-06T04:55:27.590Z,98207.90
2018-08-06T04:55:59.175Z,98201.55
2018-08-06T04:56:30.794Z,98199.76
2018-08-06T04:57:02.406Z,98201.41
2018-08-06T04:57:34.005Z,98207.31
2018-08-06T04:58:05.591Z,98202.64
2018-08-06T04:58:37.244Z,98205.33
2018-08-06T04:59:08.849Z,98210.92
2018-08-06T04:59:40.510Z,98212.33
2018-08-06T05:00:12.067Z,98207.22
2018-08-06T05:00:43.652Z,98206.71
2018-08-06T05:01:15.226Z,98214.33
2018-08-06T05:01:46.820Z,98213.84
2018-08-06T05:02:18.408Z,98215.88
2018-08-06T05:02:49.991Z,98212.38
2018-08-06T05:03:21.580Z,98213.08
2018-08-06T05:03:53.195Z,98211.75
2018-08-06T05:04:24.787Z,98213.31
2018-08-06T05:04:56.383Z,98214.96
2018-08-06T05:05:27.986Z,98209.00
2018-08-06T05:05:59.609Z,98215.00
2018-08-06T05:06:31.235Z,98209.47
2018-08-06T05:07:02.821Z,98213.25
2018-08-06T05:07:34.444Z,98211.94
2018-08-06T05:08:06.077Z,98213.14
2018-08-06T05:08:37.725Z,98210.17
2018-08-06T05:09:09.306Z,98202.98
2018-08-06T05:09:40.887Z,98210.27
2018-08-06T05:10:12.480Z,98205.97
2018-08-06T05:10:44.083Z,98215.71
2018-08-06T05:11:15.681Z,98207.61
2018-08-06T05:11:47.254Z,98207.09
2018-08-06T05:12:18.839Z,98206.28
2018-08-06T05:12:50.427Z,98206.34
2018-08-06T05:13:22.026Z,98210.22
2018-08-06T05:13:53.642Z,98203.89
2018-08-06T05:14:25.227Z,98212.39
2018-08-06T05:14:56.811Z,98209.05
2018-08-06T05:15:28.405Z,98200.11
2018-08-06T05:16:00.008Z,98208.94
2018-08-06T05:16:31.613Z,98213.14
2018-08-06T05:17:03.200Z,98208.03
2018-08-06T05:17:34.841Z,98205.44
2018-08-06T05:18:06.447Z,98205.44
2018-08-06T05:18:38.045Z,98207.14
2018-08-06T05:19:09.635Z,98212.68
2018-08-06T05:19:41.229Z,98207.95
2018-08-06T05:20:12.825Z,98210.55
2018-08-06T05:20:44.411Z,98213.89
2018-08-06T05:21:16.013Z,98210.48
2018-08-06T05:21:47.615Z,98205.38
2018-08-06T05:22:19.211Z,98204.91
2018-08-06T05:22:50.804Z,98209.04
2018-08-06T05:23:22.401Z,98211.12
2018-08-06T05:23:54.040Z,98206.44
2018-08-06T05:24:25.626Z,98209.45
2018-08-06T05:24:57.211Z,98210.64
2018-08-06T05:25:28.795Z,98208.94
2018-08-06T05:26:00.377Z,98211.10
2018-08-06T05:26:31.959Z,98214.09
2018-08-06T05:27:03.544Z,98211.10
2018-08-06T05:27:35.134Z,98220.42
2018-08-06T05:28:06.724Z,98214.47
2018-08-06T05:28:38.311Z,98217.01
2018-08-06T05:29:09.943Z,98215.69
2018-08-06T05:29:41.536Z,98212.28
2018-08-06T05:30:13.135Z,98214.78
2018-08-06T05:30:44.724Z,98205.91
2018-08-06T05:31:16.347Z,98211.43
2018-08-06T05:31:47.933Z,98208.88
2018-08-06T05:32:19.509Z,98214.40
2018-08-06T05:32:51.114Z,98218.23
2018-08-06T05:33:22.695Z,98220.75
2018-08-06T05:33:54.293Z,98211.79
2018-08-06T05:34:25.930Z,98213.03
2018-08-06T05:34:57.533Z,98215.57
2018-08-06T05:35:29.130Z,98211.75
2018-08-06T05:36:00.720Z,98212.13
2018-08-06T05:36:32.321Z,98213.83
2018-08-06T05:37:03.925Z,98217.65
2018-08-06T05:37:35.510Z,98217.22
2018-08-06T05:38:07.151Z,98181.05
2018-08-06T05:38:38.745Z,98217.61
2018-08-06T05:39:10.329Z,98219.30
2018-08-06T05:39:41.919Z,98222.23
2018-08-06T05:40:13.507Z,98218.44
2018-08-06T05:40:45.102Z,98224.34
2018-08-06T05:41:16.707Z,98221.75
2018-08-06T05:41:48.299Z,98218.28
2018-08-06T05:42:19.879Z,98223.41
2018-08-06T05:42:51.467Z,98222.48
2018-08-06T05:43:23.102Z,98223.33
2018-08-06T05:43:54.698Z,98225.78
2018-08-06T05:44:26.291Z,98222.41
2018-08-06T05:44:57.866Z,98230.08
2018-08-06T05:45:29.451Z,98224.08
2018-08-06T05:46:01.039Z,98225.13
2018-08-06T05:46:32.623Z,98227.52
2018-08-06T05:47:04.207Z,98231.28
2018-08-06T05:47:35.813Z,98225.72
2018-08-06T05:48:07.429Z,98230.37
2018-08-06T05:48:39.025Z,98229.94
2018-08-06T05:49:10.602Z,98231.59
2018-08-06T05:49:42.209Z,98228.55
2018-08-06T05:50:13.795Z,98231.91
2018-08-06T05:50:45.419Z,98234.44
2018-08-06T05:51:17.017Z,98233.55
2018-08-06T05:51:48.603Z,98230.20
2018-08-06T05:52:20.201Z,98234.94
2018-08-06T05:52:51.805Z,98226.00
2018-08-06T05:53:23.395Z,98233.71
2018-08-06T05:53:54.989Z,98230.73
2018-08-06T05:54:26.565Z,98227.28
2018-08-06T05:54:58.151Z,98233.28
2018-08-06T05:55:29.765Z,98233.29
2018-08-06T05:56:01.352Z,98231.16
2018-08-06T05:56:32.950Z,98228.60
2018-08-06T05:57:04.549Z,98229.39
2018-08-06T05:57:36.135Z,98233.66
2018-08-06T05:58:07.775Z,98234.94
2018-08-06T05:58:39.349Z,98231.05
2018-08-06T05:59:10.939Z,98231.91
2018-08-06T05:59:42.534Z,98234.09
2018-08-06T06:00:14.143Z,98231.96
2018-08-06T06:00:45.741Z,98235.34
2018-08-06T06:01:17.327Z,98240.41
2018-08-06T06:01:48.923Z,98237.86
2018-08-06T06:02:20.507Z,98234.83
2018-08-06T06:02:52.090Z,98241.56
2018-08-06T06:03:23.751Z,98245.33
2018-08-06T06:03:55.341Z,98244.40
2018-08-06T06:04:26.917Z,98239.10
2018-08-06T06:04:58.547Z,98237.27
2018-08-06T06:05:30.164Z,98240.63
2018-08-06T06:06:01.746Z,98243.13
2018-08-06T06:06:33.331Z,98236.25
2018-08-06T06:07:04.924Z,98238.16
2018-08-06T06:07:36.526Z,98237.61
2018-08-06T06:08:08.120Z,98240.13
2018-08-06T06:08:39.703Z,98239.75
2018-08-06T06:09:11.340Z,98241.40
2018-08-06T06:09:42.931Z,98237.86
2018-08-06T06:10:14.515Z,98236.01
2018-08-06T06:10:46.094Z,98237.20
2018-08-06T06:11:17.701Z,98240.56